De Pere, WI

1:49 PM CDT on August 30, 2016 (GMT -0500)
Shadow Ridge | | Change Station

Elev 640 ft 44.44 °N, 88.11 °W | Updated 16 seconds ago

Clear
Clear
84.6 °F
Feels Like 90 °F
N
5.3
Wind Variable Wind from SW

Today
High -- | Low -- °F
--% Chance of Precip.
Yesterday
High -- | Low -- °F
Precip. -- in
Pressure 30.08 in
Visibility 10.0 miles
Clouds Clear
Heat Index 90 °F
Dew Point 72 °F
Humidity 65%
Rainfall 0.00 in
Snow Depth Not available.
6:13 AM 7:31 PM
Waning Crescent, 3% visible
METAR KGRB 301753Z 18004KT 10SM CLR 27/21 A3008 RMK AO2 SLP184 T02720211 10278 20200 58014
Pressure 30.08 in
Visibility 10.0 miles
Clouds Clear
Heat Index 90 °F
Dew Point 72 °F
Humidity 65%
Rainfall 0.00 in
Snow Depth Not available.
6:13 AM 7:31 PM
Waning Crescent, 3% visible
METAR KGRB 301753Z 18004KT 10SM CLR 27/21 A3008 RMK AO2 SLP184 T02720211 10278 20200 58014

10-Day Weather Forecast

Almanac

Astronomy

Aug. 30, 2016 Rise Set
Actual Time
Civil Twilight
Nautical Twilight
Astronomical Twilight
Moon
Length of Visible Light
Length of Day
Tomorrow will be .
, % of the Moon is Illuminated

Today's Extremes

State Highs State Lows

Community

WunderPhotos

Upload Photos

1,935,875 photos uploaded!

WunderBlog® & News

Nearby

Air Quality

  Air Quality AQ Index Pollutant
Not available.

Snow Depth

Station Depth Elevation

Earthquake Activity

City Distance Mag. Time & Date
Minimum magnitude displayed is 2.5.

Coastal Water Temperatures

Place Temperature

Stations

Nearby Weather Stations

Station Location Temp. Windchill Dew Point Humidity Wind Precip. Elev Updated Type
                   

Watches & Warnings

There are currently no watches in effect.